Time;durP1;ratioP1;P1;durP2;ratioP2;P2;SDS_P1;SDS_P2;PMS_P1;PMS_P2;Temp;Humidity;BMP_temperature;BMP_pressure;BME280_temperature;BME280_humidity;BME280_pressure;Samples;Min_cycle;Max_cycle;Signal;HPM_P1;HPM_P2
2023/10/22 00:02:05;;;;;;;;;;;;;;;20.66;29.40;97782.59;5002329;28;996;-79
2023/10/22 00:04:31;;;;;;;;;;;;;;;20.77;29.18;97783.09;5002146;28;1102;-78
2023/10/22 00:06:57;;;;;;;;;;;;;;;21.09;28.79;97781.44;4986252;28;1911;-79
2023/10/22 00:09:22;;;;;;;;;;;;;;;20.91;28.94;97792.44;5002282;28;1434;-78
2023/10/22 00:11:48;;;;;;;;;;;;;;;20.91;28.80;97792.44;5001690;28;1500;-78
2023/10/22 00:14:13;;;;;;;;;;;;;;;20.91;28.86;97784.75;4985704;28;1156;-79
2023/10/22 00:16:39;;;;;;;;;;;;;;;20.80;28.91;97782.22;5001827;28;907;-79
2023/10/22 00:19:04;;;;;;;;;;;;;;;20.66;29.27;97779.75;5002429;28;813;-78
2023/10/22 00:21:30;;;;;;;;;;;;;;;20.92;28.83;97782.72;5002467;28;965;-78
2023/10/22 00:23:55;;;;;;;;;;;;;;;20.95;28.82;97787.50;5002300;28;1221;-79
2023/10/22 00:26:21;;;;;;;;;;;;;;;20.94;28.62;97774.59;5001993;28;914;-79
2023/10/22 00:28:49;;;;;;;;;;;;;;;20.97;28.66;97780.13;5002203;28;1138;-79
2023/10/22 00:31:15;;;;;;;;;;;;;;;20.52;29.65;97778.13;5002071;28;883;-78
2023/10/22 00:33:40;;;;;;;;;;;;;;;20.76;28.78;97775.84;5001574;28;854;-79
2023/10/22 00:36:06;;;;;;;;;;;;;;;20.94;28.84;97780.25;4998447;28;920;-79
2023/10/22 00:38:31;;;;;;;;;;;;;;;20.66;29.14;97770.47;4998604;28;899;-78
2023/10/22 00:40:57;;;;;;;;;;;;;;;20.64;28.99;97779.41;4999383;28;1312;-78
2023/10/22 00:43:22;;;;;;;;;;;;;;;20.77;28.87;97777.44;4999601;28;854;-78
2023/10/22 00:45:48;;;;;;;;;;;;;;;20.81;28.65;97780.97;4997473;28;1333;-78
2023/10/22 00:48:13;;;;;;;;;;;;;;;20.77;28.83;97777.44;4981382;28;2028;-78
2023/10/22 00:50:39;;;;;;;;;;;;;;;20.77;28.84;97776.66;4997864;28;1135;-79
2023/10/22 00:53:05;;;;;;;;;;;;;;;20.88;28.64;97776.34;4997347;28;952;-79
2023/10/22 00:55:30;;;;;;;;;;;;;;;20.65;29.17;97775.34;4981333;28;1266;-79
2023/10/22 00:57:57;;;;;;;;;;;;;;;20.81;28.86;97780.97;4997358;28;950;-79
2023/10/22 01:00:22;;;;;;;;;;;;;;;21.04;28.77;97785.63;4997677;28;1279;-79
2023/10/22 01:02:48;;;;;;;;;;;;;;;20.92;28.57;97782.72;4997457;28;1219;-78
2023/10/22 01:05:13;;;;;;;;;;;;;;;20.89;28.80;97790.06;4997449;28;1147;-79
2023/10/22 01:07:39;;;;;;;;;;;;;;;21.04;28.41;97784.81;4997544;28;1910;-79
2023/10/22 01:10:06;;;;;;;;;;;;;;;20.91;28.56;97787.56;4981427;28;1206;-78
2023/10/22 01:12:34;;;;;;;;;;;;;;;20.76;29.09;97787.16;4997073;28;971;-79
2023/10/22 01:15:00;;;;;;;;;;;;;;;20.80;28.81;97782.22;4981243;28;858;-78
2023/10/22 01:17:27;;;;;;;;;;;;;;;20.60;29.15;97792.06;4984199;28;1171;-78
2023/10/22 01:19:52;;;;;;;;;;;;;;;20.36;29.45;97791.41;5000267;28;987;-79
2023/10/22 01:22:18;;;;;;;;;;;;;;;20.70;29.07;97788.16;5000174;28;898;-79
2023/10/22 01:24:44;;;;;;;;;;;;;;;20.81;28.82;97789.44;5000268;28;1432;-79
2023/10/22 01:27:09;;;;;;;;;;;;;;;20.94;28.51;97791.56;4984248;28;1969;-79
2023/10/22 01:29:35;;;;;;;;;;;;;;;20.92;28.80;97792.00;4983886;28;1127;-78
2023/10/22 01:32:00;;;;;;;;;;;;;;;20.78;28.68;97790.34;5016456;28;920;-79
2023/10/22 01:34:26;;;;;;;;;;;;;;;21.12;28.21;97797.50;4999965;28;1092;-79
2023/10/22 01:36:52;;;;;;;;;;;;;;;21.03;28.26;97800.97;5000160;28;1112;-78
2023/10/22 01:39:18;;;;;;;;;;;;;;;20.96;28.58;97797.56;5000479;28;1122;-79
2023/10/22 01:41:43;;;;;;;;;;;;;;;20.85;28.76;97797.06;5000204;28;1047;-79
2023/10/22 01:44:09;;;;;;;;;;;;;;;21.03;28.51;97800.97;5016105;28;1069;-78
2023/10/22 01:46:35;;;;;;;;;;;;;;;20.74;28.58;97795.31;4983926;28;1977;-78
2023/10/22 01:49:00;;;;;;;;;;;;;;;20.67;29.01;97806.78;4997898;28;997;-79
2023/10/22 01:51:27;;;;;;;;;;;;;;;20.55;29.20;97799.03;4997820;28;1258;-78
2023/10/22 01:53:52;;;;;;;;;;;;;;;20.53;29.12;97798.69;4997597;28;857;-79
2023/10/22 01:56:18;;;;;;;;;;;;;;;20.77;28.50;97800.06;4997697;28;896;-79
2023/10/22 01:58:44;;;;;;;;;;;;;;;21.10;28.18;97811.31;4981055;28;1348;-79
2023/10/22 02:01:10;;;;;;;;;;;;;;;20.71;28.99;97807.50;4997576;28;1126;-79
2023/10/22 02:03:36;;;;;;;;;;;;;;;20.93;28.48;97799.22;4997507;28;1222;-79
2023/10/22 02:06:09;;;;;;;;;;;;;;;20.90;28.62;97814.28;5016047;28;1055;-79
2023/10/22 02:08:34;;;;;;;;;;;;;;;20.65;28.76;97797.97;5015687;28;1918;-78
2023/10/22 02:11:00;;;;;;;;;;;;;;;20.92;28.36;97799.69;5015687;28;904;-79
2023/10/22 02:13:26;;;;;;;;;;;;;;;20.63;28.74;97800.44;5015654;28;1337;-79
2023/10/22 02:15:51;;;;;;;;;;;;;;;20.99;28.21;97799.50;5015785;28;1113;-79
2023/10/22 02:18:17;;;;;;;;;;;;;;;20.66;29.04;97805.19;4998972;28;899;-78
2023/10/22 02:20:52;;;;;;;;;;;;;;;20.88;28.38;97801.81;5015916;28;1161;-79
2023/10/22 02:23:18;;;;;;;;;;;;;;;20.97;28.39;97796.31;4999134;28;1131;-79
2023/10/22 02:25:43;;;;;;;;;;;;;;;21.05;28.20;97800.53;5015726;28;1295;-78
2023/10/22 02:28:09;;;;;;;;;;;;;;;20.80;28.64;97793.53;5015417;28;1914;-78
2023/10/22 02:30:35;;;;;;;;;;;;;;;20.92;28.71;97803.31;5035327;28;1163;-79
2023/10/22 02:33:00;;;;;;;;;;;;;;;20.72;28.65;97794.94;5002259;28;881;-79
2023/10/22 02:35:26;;;;;;;;;;;;;;;20.97;28.57;97797.09;5002366;28;1127;-78
2023/10/22 02:37:51;;;;;;;;;;;;;;;20.94;28.48;97802.88;4985152;28;884;-78
2023/10/22 02:40:17;;;;;;;;;;;;;;;21.00;28.47;97795.44;4979672;28;923;-78
2023/10/22 02:42:42;;;;;;;;;;;;;;;20.71;28.80;97796.19;5015153;28;1301;-78
2023/10/22 02:45:09;;;;;;;;;;;;;;;21.04;28.21;97796.13;4978818;28;1156;-79
2023/10/22 02:47:35;;;;;;;;;;;;;;;20.93;28.41;97801.25;4995442;28;1914;-79
2023/10/22 02:50:00;;;;;;;;;;;;;;;20.79;28.41;97808.91;4979246;28;911;-79
2023/10/22 02:52:26;;;;;;;;;;;;;;;20.97;28.26;97802.75;4979507;28;1908;-79
2023/10/22 02:54:53;;;;;;;;;;;;;;;21.27;28.73;97807.19;4995325;28;1265;-79
2023/10/22 02:57:18;;;;;;;;;;;;;;;21.43;29.21;97806.34;5011748;28;928;-79
2023/10/22 02:59:44;;;;;;;;;;;;;;;21.66;29.33;97813.78;4994262;28;910;-79
2023/10/22 03:02:09;;;;;;;;;;;;;;;21.71;29.72;97809.59;4985777;28;1271;-79
2023/10/22 03:04:35;;;;;;;;;;;;;;;21.38;30.01;97803.28;4975019;28;1160;-79
2023/10/22 03:07:00;;;;;;;;;;;;;;;21.20;29.89;97813.06;4975189;28;1991;-79
2023/10/22 03:09:26;;;;;;;;;;;;;;;20.97;30.08;97813.28;4958715;28;1291;-79
2023/10/22 03:11:51;;;;;;;;;;;;;;;20.95;30.22;97816.56;4975397;28;1298;-79
2023/10/22 03:14:20;;;;;;;;;;;;;;;21.09;29.93;97815.41;4994050;28;1354;-79
2023/10/22 03:16:46;;;;;;;;;;;;;;;21.01;29.69;97809.13;4989380;28;1299;-78
2023/10/22 03:19:12;;;;;;;;;;;;;;;20.80;30.23;97810.50;5017609;28;1257;-78
2023/10/22 03:21:38;;;;;;;;;;;;;;;20.87;30.02;97817.19;5018372;28;959;-79
2023/10/22 03:24:07;;;;;;;;;;;;;;;20.72;30.08;97825.25;5001841;28;1270;-79
2023/10/22 03:26:35;;;;;;;;;;;;;;;20.69;30.46;97817.66;5001502;28;1993;-79
2023/10/22 03:29:02;;;;;;;;;;;;;;;20.67;30.29;97820.91;5017125;28;1086;-79
2023/10/22 03:31:27;;;;;;;;;;;;;;;20.83;29.71;97819.31;4997931;28;1356;-77
2023/10/22 03:33:53;;;;;;;;;;;;;;;20.75;30.04;97825.16;5013505;28;1371;-77
2023/10/22 03:36:19;;;;;;;;;;;;;;;20.91;29.80;97827.19;5013360;28;1253;-77
2023/10/22 03:38:44;;;;;;;;;;;;;;;21.06;29.49;97824.75;4981412;28;1364;-78
2023/10/22 03:41:10;;;;;;;;;;;;;;;20.87;29.62;97837.00;4997677;28;1233;-77
2023/10/22 03:43:35;;;;;;;;;;;;;;;21.06;29.29;97834.03;4981777;28;1438;-77
2023/10/22 03:46:02;;;;;;;;;;;;;;;20.99;29.20;97837.06;4995568;28;1328;-76
2023/10/22 03:48:27;;;;;;;;;;;;;;;20.66;29.85;97833.47;4978666;28;1979;-77
2023/10/22 03:50:53;;;;;;;;;;;;;;;20.71;29.88;97830.09;4994875;28;906;-77
2023/10/22 03:53:19;;;;;;;;;;;;;;;21.07;28.98;97837.66;4978399;28;1320;-78
2023/10/22 03:55:44;;;;;;;;;;;;;;;20.96;29.24;97834.31;4994894;28;941;-77
2023/10/22 03:58:10;;;;;;;;;;;;;;;20.89;29.21;97840.19;4978185;28;922;-77
2023/10/22 04:00:35;;;;;;;;;;;;;;;20.88;29.54;97838.56;4995080;28;933;-77
2023/10/22 04:03:01;;;;;;;;;;;;;;;20.78;29.49;97835.59;4978546;28;1226;-77
2023/10/22 04:05:26;;;;;;;;;;;;;;;20.69;29.41;97837.47;4994405;28;1005;-77
2023/10/22 04:07:52;;;;;;;;;;;;;;;20.95;29.05;97849.72;4978490;28;1977;-77
2023/10/22 04:10:17;;;;;;;;;;;;;;;20.94;29.40;97845.31;4980732;28;1095;-76
2023/10/22 04:12:43;;;;;;;;;;;;;;;21.02;29.33;97843.84;4982035;28;1189;-77
2023/10/22 04:15:08;;;;;;;;;;;;;;;20.65;29.79;97846.03;4998743;28;930;-77
2023/10/22 04:17:34;;;;;;;;;;;;;;;20.63;29.78;97842.84;5000581;28;1123;-77
2023/10/22 04:19:59;;;;;;;;;;;;;;;20.73;29.62;97844.63;5008291;28;1245;-77
2023/10/22 04:22:26;;;;;;;;;;;;;;;20.69;29.78;97838.25;4982739;28;1088;-77
2023/10/22 04:24:52;;;;;;;;;;;;;;;20.75;29.54;97835.69;4983027;28;773;-78
2023/10/22 04:27:17;;;;;;;;;;;;;;;20.88;29.17;97849.88;4998980;28;1902;-77
2023/10/22 04:29:46;;;;;;;;;;;;;;;20.68;29.55;97853.63;4999014;28;868;-77
2023/10/22 04:32:11;;;;;;;;;;;;;;;20.71;29.47;97855.56;4989232;28;1268;-77
2023/10/22 04:34:37;;;;;;;;;;;;;;;20.78;29.57;97855.41;4984626;28;1293;-78
2023/10/22 04:37:04;;;;;;;;;;;;;;;20.79;29.31;97850.53;5001688;28;1285;-78
2023/10/22 04:39:30;;;;;;;;;;;;;;;20.50;29.87;97858.91;4977460;28;1531;-79
2023/10/22 04:41:55;;;;;;;;;;;;;;;20.27;30.39;97863.47;4981292;28;1230;-79
2023/10/22 04:44:21;;;;;;;;;;;;;;;20.52;29.66;97860.09;4961223;28;1223;-79
2023/10/22 04:46:49;;;;;;;;;;;;;;;20.88;29.00;97869.69;4980354;28;1914;-78
2023/10/22 04:49:14;;;;;;;;;;;;;;;20.69;29.68;97865.72;4964481;28;1295;-79
2023/10/22 04:51:40;;;;;;;;;;;;;;;20.87;29.09;97868.09;4969392;28;1183;-79
2023/10/22 04:54:05;;;;;;;;;;;;;;;20.69;29.60;97866.53;4934671;29;1254;-79
2023/10/22 04:56:31;;;;;;;;;;;;;;;20.56;29.82;97868.47;4930962;29;1299;-79
2023/10/22 04:58:57;;;;;;;;;;;;;;;20.81;29.54;97870.66;4931020;29;1251;-79
2023/10/22 05:01:22;;;;;;;;;;;;;;;21.26;29.62;97876.34;4938430;29;1251;-79
2023/10/22 05:03:48;;;;;;;;;;;;;;;21.50;29.33;97884.63;4916423;29;1602;-79
2023/10/22 05:06:13;;;;;;;;;;;;;;;21.68;29.73;97887.75;4915162;29;1259;-79
2023/10/22 05:08:39;;;;;;;;;;;;;;;21.49;29.89;97880.19;4948746;29;1983;-79
2023/10/22 05:11:05;;;;;;;;;;;;;;;21.16;30.24;97887.97;4965714;28;1294;-79
2023/10/22 05:13:34;;;;;;;;;;;;;;;21.13;30.11;97892.47;4981278;28;907;-79
2023/10/22 05:15:59;;;;;;;;;;;;;;;21.17;29.89;97896.00;4980830;28;1523;-78
2023/10/22 05:18:28;;;;;;;;;;;;;;;21.06;30.08;97895.47;4964845;28;1002;-78
2023/10/22 05:20:53;;;;;;;;;;;;;;;21.01;30.09;97890.38;4980622;28;1174;-79
2023/10/22 05:23:19;;;;;;;;;;;;;;;21.14;29.66;97896.91;4980475;28;890;-79
2023/10/22 05:25:45;;;;;;;;;;;;;;;21.10;29.61;97904.69;4977554;28;1372;-79
2023/10/22 05:28:10;;;;;;;;;;;;;;;21.00;29.84;97905.75;4980566;28;1918;-78
2023/10/22 05:30:35;;;;;;;;;;;;;;;20.92;29.70;97896.63;4996610;28;1273;-79
2023/10/22 05:33:01;;;;;;;;;;;;;;;20.80;29.75;97903.81;4999030;28;1312;-79
2023/10/22 05:35:27;;;;;;;;;;;;;;;21.19;29.24;97904.84;5017390;28;878;-79
2023/10/22 05:37:53;;;;;;;;;;;;;;;21.06;29.22;97912.47;5017413;28;929;-79
2023/10/22 05:40:18;;;;;;;;;;;;;;;20.97;29.30;97910.25;5017402;28;870;-78
2023/10/22 05:42:44;;;;;;;;;;;;;;;20.96;29.22;97902.22;5017730;28;917;-78
2023/10/22 05:45:09;;;;;;;;;;;;;;;21.06;29.27;97906.81;5017585;28;1077;-79
2023/10/22 05:47:35;;;;;;;;;;;;;;;20.84;29.35;97912.22;5018540;28;1914;-78
2023/10/22 05:50:01;;;;;;;;;;;;;;;20.89;29.54;97908.84;5016770;28;887;-79
2023/10/22 05:52:28;;;;;;;;;;;;;;;20.84;29.50;97906.56;5001130;28;1240;-78
2023/10/22 05:54:54;;;;;;;;;;;;;;;20.63;29.66;97905.06;5016921;28;882;-78
2023/10/22 05:57:21;;;;;;;;;;;;;;;20.68;29.54;97904.53;5017281;28;791;-79
2023/10/22 05:59:49;;;;;;;;;;;;;;;20.77;29.60;97904.69;5016967;28;1218;-79
2023/10/22 06:02:15;;;;;;;;;;;;;;;20.83;29.48;97910.63;5014019;28;1363;-78
2023/10/22 06:04:40;;;;;;;;;;;;;;;20.63;29.57;97902.22;5004804;28;1577;-79
2023/10/22 06:07:07;;;;;;;;;;;;;;;20.90;29.24;97906.81;5016325;28;1980;-79
2023/10/22 06:09:34;;;;;;;;;;;;;;;20.66;29.60;97911.84;5005137;28;1321;-79
2023/10/22 06:12:00;;;;;;;;;;;;;;;20.89;28.95;97910.88;4998174;28;1262;-78
2023/10/22 06:14:25;;;;;;;;;;;;;;;20.98;29.20;97919.53;5016053;28;1332;-79
2023/10/22 06:16:51;;;;;;;;;;;;;;;20.70;29.54;97907.69;5016239;28;1213;-78
2023/10/22 06:19:17;;;;;;;;;;;;;;;20.49;29.88;97913.88;5016501;28;1292;-79
2023/10/22 06:21:42;;;;;;;;;;;;;;;20.96;28.97;97919.97;5016948;28;1122;-78
2023/10/22 06:24:08;;;;;;;;;;;;;;;20.97;28.92;97915.91;5026232;28;1371;-78
2023/10/22 06:26:34;;;;;;;;;;;;;;;20.97;29.01;97909.44;4999230;28;1226;-78
2023/10/22 06:28:59;;;;;;;;;;;;;;;20.95;28.98;97917.59;5007654;28;1902;-78
2023/10/22 06:31:25;;;;;;;;;;;;;;;20.83;29.09;97909.81;5026082;28;1343;-79
2023/10/22 06:33:50;;;;;;;;;;;;;;;20.64;29.65;97919.97;4990241;28;1250;-78
2023/10/22 06:36:17;;;;;;;;;;;;;;;20.85;29.37;97924.31;5006400;28;1237;-78
2023/10/22 06:38:43;;;;;;;;;;;;;;;20.76;29.24;97920.06;4952699;29;1343;-79
2023/10/22 06:41:12;;;;;;;;;;;;;;;20.67;29.53;97925.53;4934052;29;1346;-79
2023/10/22 06:43:37;;;;;;;;;;;;;;;21.06;28.73;97912.47;4931452;29;1492;-79
2023/10/22 06:46:03;;;;;;;;;;;;;;;20.99;28.95;97915.47;4908678;29;1131;-78
2023/10/22 06:48:29;;;;;;;;;;;;;;;20.79;29.30;97915.56;4894593;29;1895;-78
2023/10/22 06:50:55;;;;;;;;;;;;;;;20.99;28.82;97915.47;4915907;29;1259;-78
2023/10/22 06:53:20;;;;;;;;;;;;;;;20.79;29.36;97915.56;4905775;29;1255;-78
2023/10/22 06:55:46;;;;;;;;;;;;;;;20.70;29.38;97913.34;4894043;29;1299;-78
2023/10/22 06:58:11;;;;;;;;;;;;;;;21.06;29.06;97912.47;4896418;29;1299;-78
2023/10/22 07:00:37;;;;;;;;;;;;;;;21.09;28.65;97917.25;4896892;29;1255;-78
2023/10/22 07:03:02;;;;;;;;;;;;;;;20.86;29.00;97920.25;4910844;29;1359;-78
2023/10/22 07:05:28;;;;;;;;;;;;;;;20.92;29.09;97929.78;4917492;29;1096;-78
2023/10/22 07:07:54;;;;;;;;;;;;;;;20.74;29.38;97922.53;4901441;29;1947;-77
2023/10/22 07:10:19;;;;;;;;;;;;;;;20.79;29.48;97927.66;4946378;29;860;-77
2023/10/22 07:12:44;;;;;;;;;;;;;;;20.91;29.31;97916.88;4994232;28;1223;-78
2023/10/22 07:15:12;;;;;;;;;;;;;;;20.90;29.27;97923.78;4976018;28;1139;-78
2023/10/22 07:17:38;;;;;;;;;;;;;;;20.84;29.22;97925.56;4981329;28;1105;-78
2023/10/22 07:20:05;;;;;;;;;;;;;;;20.85;29.30;97938.47;4996974;28;880;-78
2023/10/22 07:22:30;;;;;;;;;;;;;;;20.67;29.64;97941.69;4981287;28;1110;-78
2023/10/22 07:24:56;;;;;;;;;;;;;;;20.74;29.81;97931.03;4997403;28;1001;-78
2023/10/22 07:27:21;;;;;;;;;;;;;;;20.58;29.81;97931.03;5013417;28;1902;-78
2023/10/22 07:29:47;;;;;;;;;;;;;;;20.92;29.25;97935.44;4980656;28;961;-78
2023/10/22 07:32:12;;;;;;;;;;;;;;;20.81;29.78;97924.41;4981012;28;1176;-78
2023/10/22 07:34:38;;;;;;;;;;;;;;;20.90;29.33;97926.63;4997028;28;1698;-78
2023/10/22 07:37:03;;;;;;;;;;;;;;;20.88;29.67;97935.56;4997233;28;823;-78
2023/10/22 07:39:29;;;;;;;;;;;;;;;20.91;29.56;97939.50;4980826;28;1485;-78
2023/10/22 07:41:54;;;;;;;;;;;;;;;21.02;29.44;97945.69;4981180;28;1231;-78
2023/10/22 07:44:20;;;;;;;;;;;;;;;20.94;29.53;97944.28;5007662;28;1207;-78
2023/10/22 07:46:45;;;;;;;;;;;;;;;20.83;29.52;97949.41;4997518;28;1987;-78
2023/10/22 07:49:11;;;;;;;;;;;;;;;21.00;29.18;97942.53;4979366;28;1092;-78
2023/10/22 07:51:36;;;;;;;;;;;;;;;21.18;29.33;97936.41;4962006;28;759;-78
2023/10/22 07:54:02;;;;;;;;;;;;;;;21.05;29.35;97939.16;4945880;28;802;-78
2023/10/22 07:56:28;;;;;;;;;;;;;;;21.10;29.03;97932.19;4977879;28;1052;-78
2023/10/22 07:58:53;;;;;;;;;;;;;;;21.19;28.94;97937.97;4940624;28;1230;-78
2023/10/22 08:01:19;;;;;;;;;;;;;;;21.25;29.04;97934.19;4962322;28;1219;-78
2023/10/22 08:03:45;;;;;;;;;;;;;;;20.90;29.55;97938.72;4962489;28;1294;-78
2023/10/22 08:06:11;;;;;;;;;;;;;;;20.80;29.87;97932.09;4978646;28;1408;-78
2023/10/22 08:08:36;;;;;;;;;;;;;;;20.81;29.85;97947.81;4942399;28;1914;-78
2023/10/22 08:11:02;;;;;;;;;;;;;;;20.94;29.44;97941.47;4943002;29;1220;-78
2023/10/22 08:13:28;;;;;;;;;;;;;;;21.08;29.41;97941.09;4956296;29;1329;-78
2023/10/22 08:15:54;;;;;;;;;;;;;;;21.19;29.28;97950.13;4972193;28;1243;-78
2023/10/22 08:18:20;;;;;;;;;;;;;;;21.27;29.07;97945.84;4973704;28;1151;-78
2023/10/22 08:20:45;;;;;;;;;;;;;;;21.37;28.83;97944.00;4982148;28;1278;-78
2023/10/22 08:23:11;;;;;;;;;;;;;;;21.43;28.54;97938.59;4997060;28;1238;-78
2023/10/22 08:25:36;;;;;;;;;;;;;;;21.18;28.95;97942.06;4980354;28;1211;-78
2023/10/22 08:28:02;;;;;;;;;;;;;;;21.33;28.68;97938.44;4989239;28;1993;-78
2023/10/22 08:30:27;;;;;;;;;;;;;;;21.11;29.11;97931.72;4978323;28;1242;-78
2023/10/22 08:32:53;;;;;;;;;;;;;;;20.95;29.25;97934.56;4958361;28;1350;-79
2023/10/22 08:35:18;;;;;;;;;;;;;;;20.90;29.75;97938.72;4964534;28;1603;-78
2023/10/22 08:37:44;;;;;;;;;;;;;;;21.06;29.58;97929.44;4967497;28;1084;-78
2023/10/22 08:40:10;;;;;;;;;;;;;;;21.05;29.35;97933.50;4949120;28;1172;-78
2023/10/22 08:42:35;;;;;;;;;;;;;;;20.57;30.34;97937.88;4959456;28;1633;-78
2023/10/22 08:45:01;;;;;;;;;;;;;;;20.68;30.10;97921.50;4979893;28;1164;-78
2023/10/22 08:47:27;;;;;;;;;;;;;;;20.46;30.30;97931.66;4959689;28;1981;-78
2023/10/22 08:49:53;;;;;;;;;;;;;;;21.00;29.89;97936.88;4925868;29;915;-78
2023/10/22 08:52:19;;;;;;;;;;;;;;;21.12;29.38;97933.31;4910792;29;1132;-78
2023/10/22 08:54:47;;;;;;;;;;;;;;;21.12;29.30;97924.81;4926297;29;1080;-78
2023/10/22 08:57:13;;;;;;;;;;;;;;;21.04;29.44;97926.25;4940982;29;744;-78
2023/10/22 08:59:38;;;;;;;;;;;;;;;21.07;29.45;97919.69;4926606;29;1179;-78
2023/10/22 09:02:08;;;;;;;;;;;;;;;21.04;29.66;97920.59;4926975;29;967;-78
2023/10/22 09:04:33;;;;;;;;;;;;;;;21.07;29.58;97920.50;4945108;28;809;-78
2023/10/22 09:06:59;;;;;;;;;;;;;;;21.19;29.43;97921.81;4994685;28;1977;-79
2023/10/22 09:09:28;;;;;;;;;;;;;;;21.05;29.45;97910.88;4994959;28;926;-78
2023/10/22 09:11:55;;;;;;;;;;;;;;;20.84;29.67;97905.75;5013098;28;1097;-78
2023/10/22 09:14:21;;;;;;;;;;;;;;;20.97;29.62;97903.78;4964410;28;990;-78
2023/10/22 09:16:46;;;;;;;;;;;;;;;21.26;29.06;97899.00;4997128;28;979;-78
2023/10/22 09:19:12;;;;;;;;;;;;;;;21.22;29.48;97898.28;4977346;28;1298;-78
2023/10/22 09:21:44;;;;;;;;;;;;;;;21.25;29.19;97896.63;4996042;28;1194;-78
2023/10/22 09:24:09;;;;;;;;;;;;;;;21.25;29.34;97890.94;4947908;28;1324;-78
2023/10/22 09:26:42;;;;;;;;;;;;;;;21.26;28.98;97872.72;4971944;28;1242;-79
2023/10/22 09:29:07;;;;;;;;;;;;;;;21.18;29.31;97879.81;4980073;28;1906;-78
2023/10/22 09:31:33;;;;;;;;;;;;;;;21.23;29.38;97862.28;4995924;28;1249;-78
2023/10/22 09:33:59;;;;;;;;;;;;;;;21.24;29.12;97861.88;4948330;28;1164;-79
2023/10/22 09:36:25;;;;;;;;;;;;;;;21.22;29.25;97858.66;4980091;28;966;-78
2023/10/22 09:38:51;;;;;;;;;;;;;;;21.11;29.60;97868.69;4980032;28;1006;-79
2023/10/22 09:41:23;;;;;;;;;;;;;;;21.16;29.48;97866.13;4960623;28;1029;-79
2023/10/22 09:43:51;;;;;;;;;;;;;;;21.11;29.54;97869.47;4960550;28;1202;-79
2023/10/22 09:46:21;;;;;;;;;;;;;;;21.29;29.56;97858.47;4977066;28;905;-78
2023/10/22 09:48:46;;;;;;;;;;;;;;;21.54;28.97;97868.31;4923943;29;1981;-78
2023/10/22 09:51:13;;;;;;;;;;;;;;;21.30;29.37;97862.94;4941374;29;937;-78
2023/10/22 09:53:41;;;;;;;;;;;;;;;21.18;29.69;97860.00;4951724;28;1215;-79
2023/10/22 09:56:07;;;;;;;;;;;;;;;20.94;30.25;97870.75;4956721;29;955;-78
2023/10/22 09:58:34;;;;;;;;;;;;;;;21.05;29.93;97862.78;4956370;29;990;-78
2023/10/22 10:00:59;;;;;;;;;;;;;;;21.05;29.72;97860.75;4940621;29;934;-79
2023/10/22 10:03:25;;;;;;;;;;;;;;;20.95;30.31;97867.47;4956700;29;827;-79
2023/10/22 10:05:51;;;;;;;;;;;;;;;20.98;30.13;97860.13;4956793;29;866;-78
2023/10/22 10:08:17;;;;;;;;;;;;;;;21.12;29.63;97871.06;4955801;28;1907;-79
2023/10/22 10:10:43;;;;;;;;;;;;;;;21.03;29.96;97857.53;4956367;29;791;-78
2023/10/22 10:13:08;;;;;;;;;;;;;;;21.01;29.88;97857.22;4972412;28;763;-79
2023/10/22 10:15:38;;;;;;;;;;;;;;;21.07;30.01;97846.16;4974738;28;1469;-78
2023/10/22 10:18:06;;;;;;;;;;;;;;;21.26;29.45;97842.38;4959405;28;741;-78
2023/10/22 10:20:32;;;;;;;;;;;;;;;21.36;29.53;97840.53;4975652;28;1098;-78
2023/10/22 10:23:08;;;;;;;;;;;;;;;21.29;29.70;97830.16;4959368;28;1128;-79
2023/10/22 10:25:33;;;;;;;;;;;;;;;21.26;29.65;97833.91;4974950;28;1369;-78
2023/10/22 10:28:05;;;;;;;;;;;;;;;21.16;29.62;97837.03;5025227;28;1969;-79
2023/10/22 10:30:31;;;;;;;;;;;;;;;21.08;29.81;97825.09;5030950;28;905;-79
2023/10/22 10:32:56;;;;;;;;;;;;;;;21.22;29.70;97836.03;5014470;28;925;-79
2023/10/22 10:35:22;;;;;;;;;;;;;;;21.12;29.77;97828.63;5014138;28;905;-79
2023/10/22 10:38:06;;;;;;;;;;;;;;;21.09;30.12;97829.53;5013946;28;751;-78
2023/10/22 10:40:51;;;;;;;;;;;;;;;20.94;30.26;97814.19;5014287;28;890;-79
2023/10/22 10:43:17;;;;;;;;;;;;;;;20.97;30.21;97824.59;5014077;28;1171;-79
2023/10/22 10:46:01;;;;;;;;;;;;;;;21.10;29.87;97816.97;4997249;28;1215;-79
2023/10/22 10:48:51;;;;;;;;;;;;;;;21.40;29.47;97814.94;5013553;28;1902;-79
2023/10/22 10:51:20;;;;;;;;;;;;;;;21.27;29.81;97810.00;4994475;28;1031;-79
2023/10/22 10:54:00;;;;;;;;;;;;;;;21.52;29.40;97792.34;4978180;28;1313;-78
2023/10/22 10:56:48;;;;;;;;;;;;;;;21.52;29.13;97791.56;4994449;28;899;-79
2023/10/22 10:59:29;;;;;;;;;;;;;;;21.44;29.28;97801.50;4977723;28;823;-79
2023/10/22 11:02:03;;;;;;;;;;;;;;;21.25;29.95;97800.41;4994232;28;936;-79
2023/10/22 11:04:32;;;;;;;;;;;;;;;21.05;30.03;97789.22;4973703;28;1229;-80
2023/10/22 11:06:58;;;;;;;;;;;;;;;21.12;30.04;97786.19;4939464;29;1910;-79
2023/10/22 11:09:23;;;;;;;;;;;;;;;21.04;30.24;97788.44;4939010;29;1041;-79
2023/10/22 11:11:56;;;;;;;;;;;;;;;21.14;30.05;97795.03;4955212;29;816;-79
2023/10/22 11:14:21;;;;;;;;;;;;;;;21.09;30.23;97809.75;4955410;29;915;-79
2023/10/22 11:16:50;;;;;;;;;;;;;;;21.35;29.98;97815.50;4955322;29;873;-78
2023/10/22 11:19:22;;;;;;;;;;;;;;;21.51;29.32;97807.75;4954545;28;843;-79
2023/10/22 11:21:47;;;;;;;;;;;;;;;21.32;29.73;97812.31;4939712;29;1093;-78
2023/10/22 11:24:13;;;;;;;;;;;;;;;21.42;29.35;97807.59;4939142;29;732;-79
2023/10/22 11:26:38;;;;;;;;;;;;;;;21.08;30.24;97816.59;4955235;28;1120;-78
2023/10/22 11:29:03;;;;;;;;;;;;;;;21.21;30.08;97811.81;4970337;28;1918;-79
2023/10/22 11:31:29;;;;;;;;;;;;;;;21.14;29.98;97823.34;4977826;28;778;-79
2023/10/22 11:33:54;;;;;;;;;;;;;;;21.28;29.71;97808.78;4993827;28;751;-79
2023/10/22 11:36:20;;;;;;;;;;;;;;;21.37;29.76;97801.72;4977476;28;979;-79
2023/10/22 11:38:46;;;;;;;;;;;;;;;20.93;30.25;97801.25;4991027;28;892;-78
2023/10/22 11:41:11;;;;;;;;;;;;;;;21.05;30.34;97811.88;4975211;28;1218;-79
2023/10/22 11:43:40;;;;;;;;;;;;;;;21.47;29.13;97812.72;4974792;28;1330;-79
2023/10/22 11:46:05;;;;;;;;;;;;;;;21.03;29.96;97811.50;4923276;29;1185;-79
2023/10/22 11:48:32;;;;;;;;;;;;;;;20.82;30.30;97810.03;4892970;29;1907;-78
2023/10/22 11:51:00;;;;;;;;;;;;;;;20.87;30.35;97803.84;4898477;29;1034;-79
2023/10/22 11:53:39;;;;;;;;;;;;;;;21.12;30.13;97808.81;4898103;29;1215;-79
2023/10/22 11:56:05;;;;;;;;;;;;;;;21.19;29.87;97805.81;4898247;29;899;-79
2023/10/22 11:58:30;;;;;;;;;;;;;;;21.30;29.63;97808.38;4898129;29;966;-78
2023/10/22 12:00:56;;;;;;;;;;;;;;;21.00;30.16;97806.75;4898323;29;1058;-79
2023/10/22 12:03:21;;;;;;;;;;;;;;;20.95;30.26;97808.09;4897838;29;998;-79
2023/10/22 12:05:47;;;;;;;;;;;;;;;21.00;29.96;97809.56;4898251;29;1126;-79
2023/10/22 12:08:12;;;;;;;;;;;;;;;21.25;29.51;97804.03;4930202;29;1991;-79
2023/10/22 12:10:38;;;;;;;;;;;;;;;21.13;30.06;97807.56;4920371;29;866;-78
2023/10/22 12:13:06;;;;;;;;;;;;;;;21.18;29.65;97798.53;4935797;29;811;-79
2023/10/22 12:15:32;;;;;;;;;;;;;;;20.98;29.97;97803.56;4936160;28;1255;-79
2023/10/22 12:17:57;;;;;;;;;;;;;;;21.11;29.70;97807.25;4986255;28;998;-78
2023/10/22 12:20:23;;;;;;;;;;;;;;;21.01;30.05;97803.47;4983384;28;1096;-79
2023/10/22 12:22:48;;;;;;;;;;;;;;;21.19;29.69;97805.00;4998837;28;905;-79
2023/10/22 12:25:14;;;;;;;;;;;;;;;21.07;29.74;97815.03;5015771;28;1067;-79
2023/10/22 12:27:39;;;;;;;;;;;;;;;21.06;30.11;97810.63;5015531;28;1981;-79
2023/10/22 12:30:06;;;;;;;;;;;;;;;21.04;29.87;97807.44;5016423;28;1088;-78
2023/10/22 12:32:31;;;;;;;;;;;;;;;21.10;29.79;97805.66;5019336;28;832;-79
2023/10/22 12:34:57;;;;;;;;;;;;;;;21.30;29.50;97809.16;5018959;28;1286;-78
2023/10/22 12:37:22;;;;;;;;;;;;;;;21.23;29.70;97805.69;5019138;28;1117;-78
2023/10/22 12:39:48;;;;;;;;;;;;;;;21.21;29.53;97808.19;5020109;28;936;-79
2023/10/22 12:42:13;;;;;;;;;;;;;;;21.11;29.80;97798.75;5018701;28;1109;-78
2023/10/22 12:44:42;;;;;;;;;;;;;;;21.14;29.49;97800.69;5001131;28;1243;-79
2023/10/22 12:47:12;;;;;;;;;;;;;;;21.20;29.53;97803.78;4984967;28;1914;-78
2023/10/22 12:49:40;;;;;;;;;;;;;;;21.01;30.02;97797.81;4985726;28;925;-78
2023/10/22 12:52:06;;;;;;;;;;;;;;;21.29;29.66;97796.19;5017558;28;1002;-79
2023/10/22 12:54:32;;;;;;;;;;;;;;;21.19;29.56;97791.66;5001090;28;1315;-79
2023/10/22 12:56:58;;;;;;;;;;;;;;;21.05;29.86;97780.75;5017299;28;1037;-79